sensor_id;sensor_type;location;lat;lon;timestamp;P1;durP1;ratioP1;P2;durP2;ratioP2
54454;SDS011;40364;52.270;10.546;2023-07-08T00:01:22;2.63;;;1.92;;
54454;SDS011;40364;52.270;10.546;2023-07-08T00:03:50;5.10;;;1.90;;
54454;SDS011;40364;52.270;10.546;2023-07-08T00:06:17;8.35;;;2.13;;
54454;SDS011;40364;52.270;10.546;2023-07-08T00:08:44;5.75;;;2.28;;
54454;SDS011;40364;52.270;10.546;2023-07-08T00:11:11;3.67;;;2.80;;
54454;SDS011;40364;52.270;10.546;2023-07-08T00:13:39;2.78;;;1.98;;
54454;SDS011;40364;52.270;10.546;2023-07-08T00:16:08;3.50;;;2.13;;
54454;SDS011;40364;52.270;10.546;2023-07-08T00:18:35;4.43;;;2.10;;
54454;SDS011;40364;52.270;10.546;2023-07-08T00:21:04;5.10;;;2.10;;
54454;SDS011;40364;52.270;10.546;2023-07-08T00:23:34;2.65;;;2.00;;
54454;SDS011;40364;52.270;10.546;2023-07-08T00:26:01;2.90;;;2.28;;
54454;SDS011;40364;52.270;10.546;2023-07-08T00:28:28;3.75;;;2.42;;
54454;SDS011;40364;52.270;10.546;2023-07-08T00:30:54;4.88;;;2.70;;
54454;SDS011;40364;52.270;10.546;2023-07-08T00:33:22;2.90;;;2.08;;
54454;SDS011;40364;52.270;10.546;2023-07-08T00:35:49;3.47;;;2.17;;
54454;SDS011;40364;52.270;10.546;2023-07-08T00:38:26;3.33;;;2.20;;
54454;SDS011;40364;52.270;10.546;2023-07-08T00:40:57;3.67;;;2.33;;
54454;SDS011;40364;52.270;10.546;2023-07-08T00:43:33;4.70;;;2.33;;
54454;SDS011;40364;52.270;10.546;2023-07-08T00:46:15;3.17;;;2.17;;
54454;SDS011;40364;52.270;10.546;2023-07-08T00:48:46;4.07;;;2.22;;
54454;SDS011;40364;52.270;10.546;2023-07-08T00:51:13;3.38;;;2.30;;
54454;SDS011;40364;52.270;10.546;2023-07-08T00:53:41;3.03;;;2.25;;
54454;SDS011;40364;52.270;10.546;2023-07-08T00:56:08;3.47;;;2.53;;
54454;SDS011;40364;52.270;10.546;2023-07-08T00:58:42;3.95;;;2.55;;
54454;SDS011;40364;52.270;10.546;2023-07-08T01:01:10;3.20;;;2.40;;
54454;SDS011;40364;52.270;10.546;2023-07-08T01:03:39;3.20;;;2.55;;
54454;SDS011;40364;52.270;10.546;2023-07-08T01:06:08;5.95;;;2.42;;
54454;SDS011;40364;52.270;10.546;2023-07-08T01:08:35;3.70;;;2.45;;
54454;SDS011;40364;52.270;10.546;2023-07-08T01:11:03;2.85;;;2.55;;
54454;SDS011;40364;52.270;10.546;2023-07-08T01:13:35;3.53;;;2.22;;
54454;SDS011;40364;52.270;10.546;2023-07-08T01:16:04;3.58;;;2.60;;
54454;SDS011;40364;52.270;10.546;2023-07-08T01:18:30;6.95;;;2.25;;
54454;SDS011;40364;52.270;10.546;2023-07-08T01:21:00;5.43;;;2.50;;
54454;SDS011;40364;52.270;10.546;2023-07-08T01:23:28;3.97;;;2.35;;
54454;SDS011;40364;52.270;10.546;2023-07-08T01:25:55;2.72;;;2.40;;
54454;SDS011;40364;52.270;10.546;2023-07-08T01:28:21;4.68;;;2.65;;
54454;SDS011;40364;52.270;10.546;2023-07-08T01:30:48;3.58;;;2.40;;
54454;SDS011;40364;52.270;10.546;2023-07-08T01:33:16;3.33;;;2.45;;
54454;SDS011;40364;52.270;10.546;2023-07-08T01:35:43;3.67;;;2.40;;
54454;SDS011;40364;52.270;10.546;2023-07-08T01:38:10;5.18;;;2.53;;
54454;SDS011;40364;52.270;10.546;2023-07-08T01:40:47;4.65;;;2.40;;
54454;SDS011;40364;52.270;10.546;2023-07-08T01:45:40;3.65;;;2.55;;
54454;SDS011;40364;52.270;10.546;2023-07-08T01:48:07;3.50;;;2.50;;
54454;SDS011;40364;52.270;10.546;2023-07-08T01:50:35;8.38;;;2.42;;
54454;SDS011;40364;52.270;10.546;2023-07-08T01:53:04;7.10;;;2.35;;
54454;SDS011;40364;52.270;10.546;2023-07-08T01:55:34;3.13;;;2.30;;
54454;SDS011;40364;52.270;10.546;2023-07-08T01:58:01;4.25;;;2.72;;
54454;SDS011;40364;52.270;10.546;2023-07-08T02:00:28;2.63;;;2.25;;
54454;SDS011;40364;52.270;10.546;2023-07-08T02:02:54;4.68;;;2.70;;
54454;SDS011;40364;52.270;10.546;2023-07-08T02:05:21;5.43;;;2.88;;
54454;SDS011;40364;52.270;10.546;2023-07-08T02:07:48;3.58;;;2.55;;
54454;SDS011;40364;52.270;10.546;2023-07-08T02:10:14;3.55;;;2.83;;
54454;SDS011;40364;52.270;10.546;2023-07-08T02:12:41;4.07;;;2.80;;
54454;SDS011;40364;52.270;10.546;2023-07-08T02:15:09;5.45;;;3.05;;
54454;SDS011;40364;52.270;10.546;2023-07-08T02:17:36;5.05;;;3.00;;
54454;SDS011;40364;52.270;10.546;2023-07-08T02:20:02;5.35;;;2.70;;
54454;SDS011;40364;52.270;10.546;2023-07-08T02:22:29;4.30;;;2.30;;
54454;SDS011;40364;52.270;10.546;2023-07-08T02:24:55;3.70;;;2.90;;
54454;SDS011;40364;52.270;10.546;2023-07-08T02:27:22;6.75;;;2.95;;
54454;SDS011;40364;52.270;10.546;2023-07-08T02:29:48;5.22;;;3.13;;
54454;SDS011;40364;52.270;10.546;2023-07-08T02:32:16;3.70;;;2.75;;
54454;SDS011;40364;52.270;10.546;2023-07-08T02:34:43;3.80;;;2.38;;
54454;SDS011;40364;52.270;10.546;2023-07-08T02:37:09;5.95;;;4.30;;
54454;SDS011;40364;52.270;10.546;2023-07-08T02:39:36;4.38;;;2.50;;
54454;SDS011;40364;52.270;10.546;2023-07-08T02:42:02;9.15;;;2.80;;
54454;SDS011;40364;52.270;10.546;2023-07-08T02:44:29;2.97;;;2.60;;
54454;SDS011;40364;52.270;10.546;2023-07-08T02:46:55;3.45;;;2.70;;
54454;SDS011;40364;52.270;10.546;2023-07-08T02:49:23;7.82;;;2.92;;
54454;SDS011;40364;52.270;10.546;2023-07-08T02:51:50;4.45;;;2.90;;
54454;SDS011;40364;52.270;10.546;2023-07-08T02:54:16;5.40;;;2.83;;
54454;SDS011;40364;52.270;10.546;2023-07-08T02:56:42;5.07;;;2.75;;
54454;SDS011;40364;52.270;10.546;2023-07-08T02:59:09;4.90;;;3.00;;
54454;SDS011;40364;52.270;10.546;2023-07-08T03:01:35;3.42;;;2.75;;
54454;SDS011;40364;52.270;10.546;2023-07-08T03:04:06;2.80;;;2.38;;
54454;SDS011;40364;52.270;10.546;2023-07-08T03:06:39;6.60;;;3.35;;
54454;SDS011;40364;52.270;10.546;2023-07-08T03:09:05;4.75;;;3.83;;
54454;SDS011;40364;52.270;10.546;2023-07-08T03:11:32;5.13;;;2.88;;
54454;SDS011;40364;52.270;10.546;2023-07-08T03:13:58;4.30;;;3.05;;
54454;SDS011;40364;52.270;10.546;2023-07-08T03:16:24;8.43;;;3.05;;
54454;SDS011;40364;52.270;10.546;2023-07-08T03:18:51;5.90;;;2.92;;
54454;SDS011;40364;52.270;10.546;2023-07-08T03:21:17;4.75;;;2.67;;
54454;SDS011;40364;52.270;10.546;2023-07-08T03:23:47;3.75;;;2.75;;
54454;SDS011;40364;52.270;10.546;2023-07-08T03:26:13;5.05;;;3.10;;
54454;SDS011;40364;52.270;10.546;2023-07-08T03:28:40;4.30;;;2.85;;
54454;SDS011;40364;52.270;10.546;2023-07-08T03:31:07;5.35;;;3.00;;
54454;SDS011;40364;52.270;10.546;2023-07-08T03:33:34;5.22;;;3.22;;
54454;SDS011;40364;52.270;10.546;2023-07-08T03:36:00;4.13;;;2.92;;
54454;SDS011;40364;52.270;10.546;2023-07-08T03:38:27;3.88;;;3.10;;
54454;SDS011;40364;52.270;10.546;2023-07-08T03:40:54;4.35;;;3.20;;
54454;SDS011;40364;52.270;10.546;2023-07-08T03:43:21;8.25;;;3.50;;
54454;SDS011;40364;52.270;10.546;2023-07-08T03:45:47;5.28;;;2.95;;
54454;SDS011;40364;52.270;10.546;2023-07-08T03:48:13;4.95;;;2.75;;
54454;SDS011;40364;52.270;10.546;2023-07-08T03:50:40;4.68;;;2.75;;
54454;SDS011;40364;52.270;10.546;2023-07-08T03:53:08;6.18;;;2.88;;
54454;SDS011;40364;52.270;10.546;2023-07-08T03:55:34;3.67;;;3.08;;
54454;SDS011;40364;52.270;10.546;2023-07-08T03:58:02;4.55;;;3.10;;
54454;SDS011;40364;52.270;10.546;2023-07-08T04:00:28;6.53;;;3.30;;
54454;SDS011;40364;52.270;10.546;2023-07-08T04:02:55;8.82;;;3.20;;
54454;SDS011;40364;52.270;10.546;2023-07-08T04:05:22;5.65;;;3.33;;
54454;SDS011;40364;52.270;10.546;2023-07-08T04:07:48;4.80;;;3.20;;
54454;SDS011;40364;52.270;10.546;2023-07-08T04:10:15;6.82;;;3.42;;
54454;SDS011;40364;52.270;10.546;2023-07-08T04:12:42;3.85;;;3.03;;
54454;SDS011;40364;52.270;10.546;2023-07-08T04:15:10;9.00;;;3.15;;
54454;SDS011;40364;52.270;10.546;2023-07-08T04:17:37;8.07;;;3.60;;
54454;SDS011;40364;52.270;10.546;2023-07-08T04:20:07;7.65;;;3.10;;
54454;SDS011;40364;52.270;10.546;2023-07-08T04:22:35;4.63;;;3.55;;
54454;SDS011;40364;52.270;10.546;2023-07-08T04:25:02;5.45;;;3.40;;
54454;SDS011;40364;52.270;10.546;2023-07-08T04:27:29;6.60;;;2.97;;
54454;SDS011;40364;52.270;10.546;2023-07-08T04:29:55;5.28;;;3.40;;
54454;SDS011;40364;52.270;10.546;2023-07-08T04:32:23;5.03;;;3.15;;
54454;SDS011;40364;52.270;10.546;2023-07-08T04:34:50;4.10;;;3.38;;
54454;SDS011;40364;52.270;10.546;2023-07-08T04:37:17;7.13;;;3.47;;
54454;SDS011;40364;52.270;10.546;2023-07-08T04:39:44;4.25;;;3.30;;
54454;SDS011;40364;52.270;10.546;2023-07-08T04:42:10;4.07;;;2.88;;
54454;SDS011;40364;52.270;10.546;2023-07-08T04:44:38;8.35;;;3.28;;
54454;SDS011;40364;52.270;10.546;2023-07-08T04:47:04;6.93;;;3.20;;
54454;SDS011;40364;52.270;10.546;2023-07-08T04:49:33;5.05;;;3.25;;
54454;SDS011;40364;52.270;10.546;2023-07-08T04:51:59;4.82;;;3.00;;
54454;SDS011;40364;52.270;10.546;2023-07-08T04:54:26;6.20;;;3.00;;
54454;SDS011;40364;52.270;10.546;2023-07-08T04:56:53;8.80;;;3.72;;
54454;SDS011;40364;52.270;10.546;2023-07-08T04:59:20;3.85;;;2.92;;
54454;SDS011;40364;52.270;10.546;2023-07-08T05:01:47;6.10;;;3.40;;
54454;SDS011;40364;52.270;10.546;2023-07-08T05:04:14;5.75;;;4.03;;
54454;SDS011;40364;52.270;10.546;2023-07-08T05:06:42;4.93;;;3.30;;
54454;SDS011;40364;52.270;10.546;2023-07-08T05:09:09;6.97;;;2.97;;
54454;SDS011;40364;52.270;10.546;2023-07-08T05:11:36;3.90;;;3.20;;
54454;SDS011;40364;52.270;10.546;2023-07-08T05:14:02;4.72;;;3.25;;
54454;SDS011;40364;52.270;10.546;2023-07-08T05:16:29;4.60;;;3.40;;
54454;SDS011;40364;52.270;10.546;2023-07-08T05:18:55;4.72;;;3.83;;
54454;SDS011;40364;52.270;10.546;2023-07-08T05:21:22;4.45;;;3.38;;
54454;SDS011;40364;52.270;10.546;2023-07-08T05:23:51;6.18;;;3.70;;
54454;SDS011;40364;52.270;10.546;2023-07-08T05:26:18;5.35;;;3.67;;
54454;SDS011;40364;52.270;10.546;2023-07-08T05:28:44;6.35;;;3.60;;
54454;SDS011;40364;52.270;10.546;2023-07-08T05:31:11;4.95;;;3.50;;
54454;SDS011;40364;52.270;10.546;2023-07-08T05:33:38;6.47;;;3.38;;
54454;SDS011;40364;52.270;10.546;2023-07-08T05:36:04;4.90;;;3.20;;
54454;SDS011;40364;52.270;10.546;2023-07-08T05:38:30;4.45;;;3.42;;
54454;SDS011;40364;52.270;10.546;2023-07-08T05:40:58;5.75;;;3.78;;
54454;SDS011;40364;52.270;10.546;2023-07-08T05:43:25;6.03;;;3.40;;
54454;SDS011;40364;52.270;10.546;2023-07-08T05:45:52;5.25;;;3.13;;
54454;SDS011;40364;52.270;10.546;2023-07-08T05:48:23;5.00;;;3.58;;
54454;SDS011;40364;52.270;10.546;2023-07-08T05:50:49;7.13;;;3.47;;
54454;SDS011;40364;52.270;10.546;2023-07-08T05:53:17;3.50;;;3.13;;
54454;SDS011;40364;52.270;10.546;2023-07-08T05:55:44;6.72;;;3.40;;
54454;SDS011;40364;52.270;10.546;2023-07-08T05:58:12;3.83;;;3.47;;
54454;SDS011;40364;52.270;10.546;2023-07-08T06:00:40;6.05;;;3.50;;
54454;SDS011;40364;52.270;10.546;2023-07-08T06:03:06;6.35;;;3.63;;
54454;SDS011;40364;52.270;10.546;2023-07-08T06:05:33;4.13;;;3.25;;
54454;SDS011;40364;52.270;10.546;2023-07-08T06:07:59;4.88;;;3.05;;
54454;SDS011;40364;52.270;10.546;2023-07-08T06:10:26;3.67;;;3.17;;
54454;SDS011;40364;52.270;10.546;2023-07-08T06:12:52;3.53;;;3.22;;
54454;SDS011;40364;52.270;10.546;2023-07-08T06:15:20;6.30;;;3.20;;
54454;SDS011;40364;52.270;10.546;2023-07-08T06:17:46;6.10;;;3.20;;
54454;SDS011;40364;52.270;10.546;2023-07-08T06:20:12;4.32;;;3.20;;
54454;SDS011;40364;52.270;10.546;2023-07-08T06:22:39;7.88;;;3.75;;
54454;SDS011;40364;52.270;10.546;2023-07-08T06:25:05;5.05;;;3.47;;
54454;SDS011;40364;52.270;10.546;2023-07-08T06:27:32;7.07;;;3.88;;
54454;SDS011;40364;52.270;10.546;2023-07-08T06:29:58;5.40;;;3.80;;
54454;SDS011;40364;52.270;10.546;2023-07-08T06:32:26;4.25;;;3.28;;
54454;SDS011;40364;52.270;10.546;2023-07-08T06:34:52;4.38;;;3.65;;
54454;SDS011;40364;52.270;10.546;2023-07-08T06:37:19;7.10;;;3.70;;
54454;SDS011;40364;52.270;10.546;2023-07-08T06:39:45;3.72;;;3.17;;
54454;SDS011;40364;52.270;10.546;2023-07-08T06:42:12;4.53;;;3.40;;
54454;SDS011;40364;52.270;10.546;2023-07-08T06:44:38;6.40;;;3.55;;
54454;SDS011;40364;52.270;10.546;2023-07-08T06:47:05;3.42;;;3.13;;
54454;SDS011;40364;52.270;10.546;2023-07-08T06:49:32;5.78;;;3.92;;
54454;SDS011;40364;52.270;10.546;2023-07-08T06:51:59;4.68;;;3.47;;
54454;SDS011;40364;52.270;10.546;2023-07-08T06:54:25;4.47;;;3.53;;
54454;SDS011;40364;52.270;10.546;2023-07-08T06:56:53;4.68;;;3.20;;
54454;SDS011;40364;52.270;10.546;2023-07-08T06:59:19;5.88;;;3.75;;
54454;SDS011;40364;52.270;10.546;2023-07-08T07:01:45;4.28;;;3.50;;
54454;SDS011;40364;52.270;10.546;2023-07-08T07:04:12;4.90;;;3.13;;
54454;SDS011;40364;52.270;10.546;2023-07-08T07:06:40;4.55;;;3.45;;
54454;SDS011;40364;52.270;10.546;2023-07-08T07:09:06;4.13;;;3.53;;
54454;SDS011;40364;52.270;10.546;2023-07-08T07:11:33;4.95;;;3.22;;
54454;SDS011;40364;52.270;10.546;2023-07-08T07:14:00;5.53;;;3.25;;
54454;SDS011;40364;52.270;10.546;2023-07-08T07:16:26;7.97;;;3.70;;
54454;SDS011;40364;52.270;10.546;2023-07-08T07:18:52;5.72;;;3.50;;
54454;SDS011;40364;52.270;10.546;2023-07-08T07:21:19;3.97;;;3.10;;
54454;SDS011;40364;52.270;10.546;2023-07-08T07:23:47;5.80;;;3.28;;
54454;SDS011;40364;52.270;10.546;2023-07-08T07:26:13;4.63;;;3.30;;
54454;SDS011;40364;52.270;10.546;2023-07-08T07:28:39;5.15;;;3.53;;
54454;SDS011;40364;52.270;10.546;2023-07-08T07:31:06;3.40;;;3.10;;
54454;SDS011;40364;52.270;10.546;2023-07-08T07:33:32;4.95;;;3.65;;
54454;SDS011;40364;52.270;10.546;2023-07-08T07:35:59;4.47;;;3.47;;
54454;SDS011;40364;52.270;10.546;2023-07-08T07:38:25;3.30;;;3.00;;
54454;SDS011;40364;52.270;10.546;2023-07-08T07:40:55;5.18;;;3.67;;
54454;SDS011;40364;52.270;10.546;2023-07-08T07:43:21;4.13;;;3.45;;
54454;SDS011;40364;52.270;10.546;2023-07-08T07:45:49;3.65;;;3.20;;
54454;SDS011;40364;52.270;10.546;2023-07-08T07:48:15;5.55;;;3.58;;
54454;SDS011;40364;52.270;10.546;2023-07-08T07:50:44;5.68;;;3.25;;
54454;SDS011;40364;52.270;10.546;2023-07-08T07:53:10;4.68;;;3.55;;
54454;SDS011;40364;52.270;10.546;2023-07-08T07:55:37;3.83;;;3.28;;
54454;SDS011;40364;52.270;10.546;2023-07-08T07:58:04;4.07;;;3.50;;
54454;SDS011;40364;52.270;10.546;2023-07-08T08:00:31;6.00;;;3.45;;
54454;SDS011;40364;52.270;10.546;2023-07-08T08:02:57;4.00;;;3.30;;
54454;SDS011;40364;52.270;10.546;2023-07-08T08:05:23;4.38;;;3.17;;
54454;SDS011;40364;52.270;10.546;2023-07-08T08:07:50;6.35;;;2.95;;
54454;SDS011;40364;52.270;10.546;2023-07-08T08:10:16;6.10;;;3.20;;
54454;SDS011;40364;52.270;10.546;2023-07-08T08:12:43;6.68;;;3.47;;
54454;SDS011;40364;52.270;10.546;2023-07-08T08:15:12;3.50;;;3.20;;
54454;SDS011;40364;52.270;10.546;2023-07-08T08:17:38;4.13;;;3.30;;
54454;SDS011;40364;52.270;10.546;2023-07-08T08:20:05;4.95;;;3.35;;
54454;SDS011;40364;52.270;10.546;2023-07-08T08:22:32;6.63;;;3.17;;
54454;SDS011;40364;52.270;10.546;2023-07-08T08:24:58;5.55;;;3.58;;
54454;SDS011;40364;52.270;10.546;2023-07-08T08:27:25;6.20;;;3.30;;
54454;SDS011;40364;52.270;10.546;2023-07-08T08:29:51;4.43;;;3.15;;
54454;SDS011;40364;52.270;10.546;2023-07-08T08:32:19;4.72;;;3.55;;
54454;SDS011;40364;52.270;10.546;2023-07-08T08:34:45;4.63;;;3.40;;
54454;SDS011;40364;52.270;10.546;2023-07-08T08:37:12;4.65;;;3.13;;
54454;SDS011;40364;52.270;10.546;2023-07-08T08:39:38;7.45;;;3.72;;
54454;SDS011;40364;52.270;10.546;2023-07-08T08:42:07;5.80;;;3.10;;
54454;SDS011;40364;52.270;10.546;2023-07-08T08:44:38;6.13;;;3.35;;
54454;SDS011;40364;52.270;10.546;2023-07-08T08:47:11;6.15;;;3.80;;
54454;SDS011;40364;52.270;10.546;2023-07-08T08:49:44;7.25;;;3.35;;
54454;SDS011;40364;52.270;10.546;2023-07-08T08:52:13;5.10;;;3.17;;
54454;SDS011;40364;52.270;10.546;2023-07-08T08:54:40;5.75;;;3.63;;
54454;SDS011;40364;52.270;10.546;2023-07-08T08:57:11;4.32;;;3.17;;
54454;SDS011;40364;52.270;10.546;2023-07-08T08:59:42;3.10;;;2.80;;
54454;SDS011;40364;52.270;10.546;2023-07-08T09:02:30;4.40;;;3.47;;
54454;SDS011;40364;52.270;10.546;2023-07-08T09:05:03;6.25;;;3.38;;
54454;SDS011;40364;52.270;10.546;2023-07-08T09:07:31;4.78;;;3.17;;
54454;SDS011;40364;52.270;10.546;2023-07-08T09:10:04;4.32;;;3.15;;
54454;SDS011;40364;52.270;10.546;2023-07-08T09:12:32;4.72;;;3.13;;
54454;SDS011;40364;52.270;10.546;2023-07-08T09:14:59;3.90;;;3.40;;
54454;SDS011;40364;52.270;10.546;2023-07-08T09:17:27;5.50;;;2.80;;
54454;SDS011;40364;52.270;10.546;2023-07-08T09:19:59;4.97;;;2.83;;
54454;SDS011;40364;52.270;10.546;2023-07-08T09:22:32;4.55;;;3.05;;
54454;SDS011;40364;52.270;10.546;2023-07-08T09:25:01;3.95;;;3.13;;
54454;SDS011;40364;52.270;10.546;2023-07-08T09:27:29;6.72;;;3.03;;
54454;SDS011;40364;52.270;10.546;2023-07-08T09:29:56;4.55;;;2.80;;
54454;SDS011;40364;52.270;10.546;2023-07-08T09:32:23;3.72;;;2.90;;
54454;SDS011;40364;52.270;10.546;2023-07-08T09:34:51;3.65;;;3.03;;
54454;SDS011;40364;52.270;10.546;2023-07-08T09:37:22;10.30;;;3.33;;
54454;SDS011;40364;52.270;10.546;2023-07-08T09:39:49;6.57;;;3.25;;
54454;SDS011;40364;52.270;10.546;2023-07-08T09:42:15;6.97;;;3.65;;
54454;SDS011;40364;52.270;10.546;2023-07-08T09:44:44;6.22;;;3.17;;
54454;SDS011;40364;52.270;10.546;2023-07-08T09:47:17;4.85;;;2.92;;
54454;SDS011;40364;52.270;10.546;2023-07-08T09:52:12;4.63;;;2.90;;
54454;SDS011;40364;52.270;10.546;2023-07-08T09:54:40;3.72;;;3.05;;
54454;SDS011;40364;52.270;10.546;2023-07-08T09:57:09;4.90;;;2.75;;
54454;SDS011;40364;52.270;10.546;2023-07-08T09:59:38;3.63;;;2.85;;
54454;SDS011;40364;52.270;10.546;2023-07-08T10:02:16;7.43;;;2.70;;
54454;SDS011;40364;52.270;10.546;2023-07-08T10:04:51;5.60;;;3.15;;
54454;SDS011;40364;52.270;10.546;2023-07-08T10:07:18;3.42;;;2.75;;
54454;SDS011;40364;52.270;10.546;2023-07-08T10:09:47;5.65;;;2.97;;
54454;SDS011;40364;52.270;10.546;2023-07-08T10:12:14;4.28;;;3.10;;
54454;SDS011;40364;52.270;10.546;2023-07-08T10:14:42;7.75;;;3.20;;
54454;SDS011;40364;52.270;10.546;2023-07-08T10:17:11;5.88;;;3.03;;
54454;SDS011;40364;52.270;10.546;2023-07-08T10:19:39;5.72;;;2.90;;
54454;SDS011;40364;52.270;10.546;2023-07-08T10:22:16;4.07;;;2.88;;
54454;SDS011;40364;52.270;10.546;2023-07-08T10:24:48;4.32;;;2.63;;
54454;SDS011;40364;52.270;10.546;2023-07-08T10:27:19;5.68;;;2.83;;
54454;SDS011;40364;52.270;10.546;2023-07-08T10:29:51;4.05;;;2.80;;
54454;SDS011;40364;52.270;10.546;2023-07-08T10:32:20;6.80;;;2.88;;
54454;SDS011;40364;52.270;10.546;2023-07-08T10:34:54;4.17;;;2.60;;
54454;SDS011;40364;52.270;10.546;2023-07-08T10:37:26;4.18;;;2.63;;
54454;SDS011;40364;52.270;10.546;2023-07-08T10:39:59;3.50;;;2.60;;
54454;SDS011;40364;52.270;10.546;2023-07-08T10:42:32;4.53;;;3.10;;
54454;SDS011;40364;52.270;10.546;2023-07-08T10:45:03;5.25;;;2.90;;
54454;SDS011;40364;52.270;10.546;2023-07-08T10:47:33;3.65;;;3.00;;
54454;SDS011;40364;52.270;10.546;2023-07-08T10:50:08;4.90;;;3.05;;
54454;SDS011;40364;52.270;10.546;2023-07-08T10:52:42;4.82;;;3.03;;
54454;SDS011;40364;52.270;10.546;2023-07-08T10:55:17;3.35;;;2.83;;
54454;SDS011;40364;52.270;10.546;2023-07-08T10:57:53;3.80;;;3.03;;
54454;SDS011;40364;52.270;10.546;2023-07-08T11:00:24;3.40;;;2.78;;
54454;SDS011;40364;52.270;10.546;2023-07-08T11:03:04;4.35;;;2.90;;
54454;SDS011;40364;52.270;10.546;2023-07-08T11:05:34;4.30;;;3.20;;
54454;SDS011;40364;52.270;10.546;2023-07-08T11:08:06;4.05;;;2.88;;
54454;SDS011;40364;52.270;10.546;2023-07-08T11:10:36;5.03;;;2.67;;
54454;SDS011;40364;52.270;10.546;2023-07-08T11:13:06;5.38;;;3.40;;
54454;SDS011;40364;52.270;10.546;2023-07-08T11:15:36;4.05;;;2.92;;
54454;SDS011;40364;52.270;10.546;2023-07-08T11:18:06;4.93;;;2.67;;
54454;SDS011;40364;52.270;10.546;2023-07-08T11:20:37;4.88;;;2.55;;
54454;SDS011;40364;52.270;10.546;2023-07-08T11:23:05;5.55;;;2.60;;
54454;SDS011;40364;52.270;10.546;2023-07-08T11:25:36;3.13;;;2.83;;
54454;SDS011;40364;52.270;10.546;2023-07-08T11:28:03;9.13;;;2.70;;
54454;SDS011;40364;52.270;10.546;2023-07-08T11:30:31;5.00;;;2.80;;
54454;SDS011;40364;52.270;10.546;2023-07-08T11:33:01;2.88;;;2.47;;
54454;SDS011;40364;52.270;10.546;2023-07-08T11:35:33;6.50;;;3.25;;
54454;SDS011;40364;52.270;10.546;2023-07-08T11:38:01;7.88;;;2.80;;
54454;SDS011;40364;52.270;10.546;2023-07-08T11:40:29;3.83;;;2.63;;
54454;SDS011;40364;52.270;10.546;2023-07-08T11:43:01;3.10;;;2.65;;
54454;SDS011;40364;52.270;10.546;2023-07-08T11:45:30;3.58;;;2.75;;
54454;SDS011;40364;52.270;10.546;2023-07-08T11:48:03;2.92;;;2.67;;
54454;SDS011;40364;52.270;10.546;2023-07-08T11:50:31;4.07;;;2.53;;
54454;SDS011;40364;52.270;10.546;2023-07-08T11:53:02;3.05;;;2.75;;
54454;SDS011;40364;52.270;10.546;2023-07-08T11:55:34;4.88;;;2.53;;
54454;SDS011;40364;52.270;10.546;2023-07-08T11:58:03;4.60;;;3.08;;
54454;SDS011;40364;52.270;10.546;2023-07-08T12:00:32;4.63;;;2.70;;
54454;SDS011;40364;52.270;10.546;2023-07-08T12:03:04;6.65;;;2.70;;
54454;SDS011;40364;52.270;10.546;2023-07-08T12:05:32;4.20;;;2.78;;
54454;SDS011;40364;52.270;10.546;2023-07-08T12:07:59;3.22;;;2.67;;
54454;SDS011;40364;52.270;10.546;2023-07-08T12:10:28;5.78;;;2.50;;
54454;SDS011;40364;52.270;10.546;2023-07-08T12:12:53;3.95;;;2.63;;
54454;SDS011;40364;52.270;10.546;2023-07-08T12:15:22;6.05;;;3.55;;
54454;SDS011;40364;52.270;10.546;2023-07-08T12:17:49;3.95;;;2.63;;
54454;SDS011;40364;52.270;10.546;2023-07-08T12:20:18;2.85;;;2.53;;
54454;SDS011;40364;52.270;10.546;2023-07-08T12:22:46;4.20;;;3.20;;
54454;SDS011;40364;52.270;10.546;2023-07-08T12:25:13;5.53;;;2.92;;
54454;SDS011;40364;52.270;10.546;2023-07-08T12:27:41;5.68;;;2.53;;
54454;SDS011;40364;52.270;10.546;2023-07-08T12:30:08;4.57;;;3.13;;
54454;SDS011;40364;52.270;10.546;2023-07-08T12:32:37;5.88;;;3.17;;
54454;SDS011;40364;52.270;10.546;2023-07-08T12:35:04;5.82;;;2.95;;
54454;SDS011;40364;52.270;10.546;2023-07-08T12:37:31;5.10;;;2.60;;
54454;SDS011;40364;52.270;10.546;2023-07-08T12:39:58;7.57;;;2.63;;
54454;SDS011;40364;52.270;10.546;2023-07-08T12:42:31;3.10;;;2.80;;
54454;SDS011;40364;52.270;10.546;2023-07-08T12:44:57;3.78;;;2.90;;
54454;SDS011;40364;52.270;10.546;2023-07-08T12:47:24;4.38;;;2.80;;
54454;SDS011;40364;52.270;10.546;2023-07-08T12:49:52;3.40;;;2.97;;
54454;SDS011;40364;52.270;10.546;2023-07-08T12:52:22;4.25;;;3.00;;
54454;SDS011;40364;52.270;10.546;2023-07-08T12:54:49;4.22;;;2.65;;
54454;SDS011;40364;52.270;10.546;2023-07-08T12:57:16;4.97;;;2.97;;
54454;SDS011;40364;52.270;10.546;2023-07-08T12:59:43;3.20;;;2.60;;
54454;SDS011;40364;52.270;10.546;2023-07-08T13:02:14;3.63;;;2.70;;
54454;SDS011;40364;52.270;10.546;2023-07-08T13:04:41;3.33;;;2.83;;
54454;SDS011;40364;52.270;10.546;2023-07-08T13:07:11;3.67;;;2.75;;
54454;SDS011;40364;52.270;10.546;2023-07-08T13:09:44;3.42;;;2.50;;
54454;SDS011;40364;52.270;10.546;2023-07-08T13:12:13;3.53;;;2.70;;
54454;SDS011;40364;52.270;10.546;2023-07-08T13:14:45;4.72;;;2.78;;
54454;SDS011;40364;52.270;10.546;2023-07-08T13:17:12;3.33;;;2.92;;
54454;SDS011;40364;52.270;10.546;2023-07-08T13:19:40;3.72;;;2.97;;
54454;SDS011;40364;52.270;10.546;2023-07-08T13:22:08;5.53;;;3.22;;
54454;SDS011;40364;52.270;10.546;2023-07-08T13:24:36;2.95;;;2.65;;
54454;SDS011;40364;52.270;10.546;2023-07-08T13:27:04;3.80;;;3.00;;
54454;SDS011;40364;52.270;10.546;2023-07-08T13:29:34;2.78;;;2.58;;
54454;SDS011;40364;52.270;10.546;2023-07-08T13:32:03;4.40;;;2.72;;
54454;SDS011;40364;52.270;10.546;2023-07-08T13:34:30;3.53;;;2.75;;
54454;SDS011;40364;52.270;10.546;2023-07-08T13:36:58;3.95;;;3.17;;
54454;SDS011;40364;52.270;10.546;2023-07-08T13:39:26;5.15;;;3.00;;
54454;SDS011;40364;52.270;10.546;2023-07-08T13:41:55;2.85;;;2.58;;
54454;SDS011;40364;52.270;10.546;2023-07-08T13:44:21;4.50;;;3.15;;
54454;SDS011;40364;52.270;10.546;2023-07-08T13:46:51;5.60;;;3.03;;
54454;SDS011;40364;52.270;10.546;2023-07-08T13:49:20;3.45;;;2.97;;
54454;SDS011;40364;52.270;10.546;2023-07-08T13:51:47;3.03;;;2.55;;
54454;SDS011;40364;52.270;10.546;2023-07-08T13:54:15;5.10;;;2.70;;
54454;SDS011;40364;52.270;10.546;2023-07-08T13:56:42;3.00;;;2.70;;
54454;SDS011;40364;52.270;10.546;2023-07-08T13:59:12;4.22;;;2.85;;
54454;SDS011;40364;52.270;10.546;2023-07-08T14:01:42;5.80;;;3.45;;
54454;SDS011;40364;52.270;10.546;2023-07-08T14:04:09;3.67;;;2.80;;
54454;SDS011;40364;52.270;10.546;2023-07-08T14:06:37;5.22;;;2.63;;
54454;SDS011;40364;52.270;10.546;2023-07-08T14:09:07;3.67;;;2.80;;
54454;SDS011;40364;52.270;10.546;2023-07-08T14:11:36;3.30;;;2.90;;
54454;SDS011;40364;52.270;10.546;2023-07-08T14:14:03;4.07;;;2.88;;
54454;SDS011;40364;52.270;10.546;2023-07-08T14:16:32;3.20;;;2.70;;
54454;SDS011;40364;52.270;10.546;2023-07-08T14:19:01;4.20;;;2.97;;
54454;SDS011;40364;52.270;10.546;2023-07-08T14:21:29;2.95;;;2.67;;
54454;SDS011;40364;52.270;10.546;2023-07-08T14:23:56;3.67;;;2.90;;
54454;SDS011;40364;52.270;10.546;2023-07-08T14:26:22;3.15;;;2.78;;
54454;SDS011;40364;52.270;10.546;2023-07-08T14:28:49;4.55;;;3.15;;
54454;SDS011;40364;52.270;10.546;2023-07-08T14:31:17;4.30;;;3.83;;
54454;SDS011;40364;52.270;10.546;2023-07-08T14:33:48;3.15;;;2.85;;
54454;SDS011;40364;52.270;10.546;2023-07-08T14:36:15;3.63;;;2.65;;
54454;SDS011;40364;52.270;10.546;2023-07-08T14:38:41;3.47;;;2.53;;
54454;SDS011;40364;52.270;10.546;2023-07-08T14:41:08;4.57;;;2.90;;
54454;SDS011;40364;52.270;10.546;2023-07-08T14:43:35;3.13;;;2.70;;